Time;durP1;ratioP1;P1;durP2;ratioP2;P2;SDS_P1;SDS_P2;PMS_P1;PMS_P2;Temp;Humidity;BMP_temperature;BMP_pressure;BME280_temperature;BME280_humidity;BME280_pressure;Samples;Min_cycle;Max_cycle;Signal;HPM_P1;HPM_P2
2023/06/11 00:02:07;;;;;;;18.30;9.38;;;19.90;96.20;;;;;;5053620;28;20037;-50
2023/06/11 00:04:35;;;;;;;20.15;9.70;;;19.90;96.40;;;;;;5052393;28;20033;-56
2023/06/11 00:07:05;;;;;;;19.05;9.43;;;19.80;96.30;;;;;;5053094;28;20045;-53
2023/06/11 00:09:32;;;;;;;17.25;9.23;;;19.80;96.50;;;;;;5053533;28;20127;-55
2023/06/11 00:11:58;;;;;;;24.92;9.80;;;19.70;96.60;;;;;;5052144;28;20045;-56
2023/06/11 00:14:25;;;;;;;19.45;9.70;;;19.60;96.70;;;;;;5052331;28;20049;-56
2023/06/11 00:16:52;;;;;;;21.38;9.23;;;19.60;96.80;;;;;;5051248;28;20107;-56
2023/06/11 00:19:20;;;;;;;18.70;9.73;;;19.60;96.90;;;;;;5051085;28;20044;-56
2023/06/11 00:21:48;;;;;;;16.85;9.82;;;19.60;96.90;;;;;;5052922;28;20037;-55
2023/06/11 00:24:16;;;;;;;19.65;9.57;;;19.60;97.00;;;;;;5053125;28;20044;-56
2023/06/11 00:26:43;;;;;;;16.80;9.23;;;19.60;97.00;;;;;;5053477;28;20117;-55
2023/06/11 00:29:10;;;;;;;19.85;9.73;;;19.50;97.00;;;;;;5047205;28;20495;-50
2023/06/11 00:31:37;;;;;;;20.25;9.63;;;19.50;97.10;;;;;;5041152;28;20040;-53
2023/06/11 00:34:04;;;;;;;20.58;9.77;;;19.40;97.20;;;;;;5041768;28;20059;-57
2023/06/11 00:36:33;;;;;;;19.20;9.18;;;19.40;97.30;;;;;;5051497;28;20052;-54
2023/06/11 00:39:00;;;;;;;18.15;9.38;;;19.30;97.40;;;;;;5051772;28;20427;-56
2023/06/11 00:41:29;;;;;;;16.35;9.65;;;19.30;97.40;;;;;;5053422;28;20037;-54
2023/06/11 00:43:56;;;;;;;21.20;9.70;;;19.30;97.50;;;;;;5053321;28;20120;-53
2023/06/11 00:46:24;;;;;;;19.63;9.65;;;19.20;97.40;;;;;;5051836;28;20049;-54
2023/06/11 00:48:51;;;;;;;18.88;9.40;;;19.20;97.50;;;;;;5053630;28;20045;-54
2023/06/11 00:51:18;;;;;;;18.40;10.05;;;19.10;97.60;;;;;;5053215;28;20067;-55
2023/06/11 00:53:45;;;;;;;20.17;10.23;;;19.10;97.70;;;;;;5044691;28;20068;-56
2023/06/11 00:56:17;;;;;;;18.45;9.63;;;19.00;97.70;;;;;;5039526;28;20038;-55
2023/06/11 00:58:45;;;;;;;16.70;8.90;;;19.00;97.80;;;;;;5042577;28;20476;-56
2023/06/11 01:01:15;;;;;;;18.27;8.90;;;18.90;98.00;;;;;;5039224;28;20044;-55
2023/06/11 01:03:43;;;;;;;14.45;8.50;;;18.90;98.00;;;;;;5042555;28;20035;-56
2023/06/11 01:06:11;;;;;;;16.08;9.35;;;18.80;98.30;;;;;;5035881;28;20038;-56
2023/06/11 01:08:38;;;;;;;16.73;8.85;;;18.80;98.40;;;;;;5031985;28;20366;-50
2023/06/11 01:11:08;;;;;;;20.05;9.60;;;18.70;98.60;;;;;;5033064;28;20128;-55
2023/06/11 01:13:38;;;;;;;14.85;8.60;;;18.70;98.70;;;;;;5033045;28;20064;-53
2023/06/11 01:16:05;;;;;;;20.85;10.10;;;18.60;98.70;;;;;;5033247;28;20417;-52
2023/06/11 01:18:32;;;;;;;16.80;9.70;;;18.60;98.70;;;;;;5032873;28;20048;-56
2023/06/11 01:20:59;;;;;;;16.33;9.05;;;18.60;98.80;;;;;;5033060;28;20146;-54
2023/06/11 01:23:31;;;;;;;22.67;9.90;;;18.60;98.80;;;;;;5033153;28;20038;-51
2023/06/11 01:25:58;;;;;;;19.52;9.82;;;18.60;98.70;;;;;;5056270;28;20041;-55
2023/06/11 01:28:27;;;;;;;22.95;10.45;;;18.60;98.90;;;;;;5045161;28;20036;-54
2023/06/11 01:30:55;;;;;;;20.55;9.98;;;18.50;98.80;;;;;;5075148;28;20063;-54
2023/06/11 01:33:24;;;;;;;17.05;9.35;;;18.50;98.80;;;;;;5072891;28;20041;-54
2023/06/11 01:35:58;;;;;;;20.77;10.25;;;18.40;99.10;;;;;;5055057;28;20496;-56
2023/06/11 01:38:34;;;;;;;15.52;9.35;;;18.30;99.40;;;;;;5055218;28;20049;-54
2023/06/11 01:41:01;;;;;;;17.08;9.30;;;18.30;99.30;;;;;;5074121;28;20549;-52
2023/06/11 01:43:29;;;;;;;19.35;9.52;;;18.30;99.30;;;;;;5075192;28;20036;-53
2023/06/11 01:45:56;;;;;;;15.20;9.07;;;18.20;99.30;;;;;;5076186;28;20043;-54
2023/06/11 01:48:22;;;;;;;21.85;9.32;;;18.20;99.50;;;;;;5076307;28;20040;-53
2023/06/11 01:50:49;;;;;;;16.27;8.73;;;18.20;99.50;;;;;;5074988;28;20052;-54
2023/06/11 01:53:17;;;;;;;17.30;9.45;;;18.10;99.90;;;;;;5076083;28;20041;-53
2023/06/11 01:55:43;;;;;;;17.35;9.35;;;18.00;99.90;;;;;;5076475;28;20036;-52
2023/06/11 01:58:10;;;;;;;17.30;9.52;;;18.00;99.80;;;;;;5076000;28;20047;-51
2023/06/11 02:00:38;;;;;;;16.48;9.52;;;18.00;99.80;;;;;;5091622;28;20041;-51
2023/06/11 02:03:06;;;;;;;17.88;9.70;;;18.00;99.70;;;;;;5074780;28;20037;-54
2023/06/11 02:05:33;;;;;;;15.63;9.35;;;18.00;99.80;;;;;;5075794;28;20135;-52
2023/06/11 02:08:00;;;;;;;18.35;10.10;;;18.00;99.90;;;;;;5075979;28;20475;-55
2023/06/11 02:10:27;;;;;;;20.42;10.13;;;18.00;99.70;;;;;;5076010;28;20048;-53
2023/06/11 02:12:54;;;;;;;17.88;9.20;;;18.00;99.80;;;;;;5076125;28;20046;-53
2023/06/11 02:15:21;;;;;;;17.58;8.68;;;18.00;99.80;;;;;;5074761;28;20160;-53
2023/06/11 02:17:48;;;;;;;17.30;9.32;;;18.00;99.80;;;;;;5074298;28;20485;-52
2023/06/11 02:20:15;;;;;;;18.70;9.27;;;17.90;99.70;;;;;;5075696;28;20047;-53
2023/06/11 02:22:42;;;;;;;16.63;9.43;;;18.00;99.70;;;;;;5074053;28;20070;-50
2023/06/11 02:25:09;;;;;;;18.55;9.10;;;18.00;99.70;;;;;;5075507;28;20048;-60
2023/06/11 02:27:37;;;;;;;14.88;8.88;;;17.90;99.70;;;;;;5074533;28;20044;-50
2023/06/11 02:30:04;;;;;;;16.60;9.30;;;17.90;99.90;;;;;;5091037;28;20049;-49
2023/06/11 02:32:31;;;;;;;19.17;9.73;;;17.80;99.90;;;;;;5075388;28;20043;-51
2023/06/11 02:34:58;;;;;;;17.80;9.68;;;17.70;99.90;;;;;;5074384;28;20045;-54
2023/06/11 02:37:25;;;;;;;14.98;9.20;;;17.70;99.90;;;;;;5090871;28;20036;-53
2023/06/11 02:39:52;;;;;;;21.02;10.05;;;17.60;99.90;;;;;;5088155;28;20045;-54
2023/06/11 02:42:18;;;;;;;16.75;9.75;;;17.50;99.90;;;;;;5055485;28;20051;-56
2023/06/11 02:44:45;;;;;;;21.38;9.68;;;17.40;99.90;;;;;;5054184;28;20444;-56
2023/06/11 02:47:12;;;;;;;15.55;9.10;;;17.40;99.90;;;;;;5055175;28;20047;-55
2023/06/11 02:49:39;;;;;;;22.00;10.40;;;17.50;99.90;;;;;;5055453;28;20045;-50
2023/06/11 02:52:05;;;;;;;14.98;9.18;;;17.40;99.90;;;;;;5054047;28;20048;-54
2023/06/11 02:54:32;;;;;;;16.58;9.40;;;17.40;99.90;;;;;;5054857;28;20104;-51
2023/06/11 02:56:59;;;;;;;16.88;9.73;;;17.40;99.90;;;;;;5054646;28;20045;-54
2023/06/11 02:59:26;;;;;;;16.65;9.13;;;17.50;99.90;;;;;;5053846;28;20060;-55
2023/06/11 03:01:53;;;;;;;18.95;9.93;;;17.50;99.90;;;;;;5053585;28;20033;-55
2023/06/11 03:04:20;;;;;;;16.90;9.82;;;17.40;99.90;;;;;;5053425;28;20051;-51
2023/06/11 03:06:47;;;;;;;20.67;10.02;;;17.30;99.90;;;;;;5053748;28;20118;-55
2023/06/11 03:09:14;;;;;;;14.48;8.93;;;17.30;99.90;;;;;;5053547;28;20068;-53
2023/06/11 03:11:41;;;;;;;15.30;9.45;;;17.30;99.90;;;;;;5053470;28;20040;-53
2023/06/11 03:14:08;;;;;;;17.38;10.15;;;17.20;99.90;;;;;;5055158;28;20067;-53
2023/06/11 03:16:35;;;;;;;16.75;9.85;;;17.10;99.90;;;;;;5053210;28;20033;-55
2023/06/11 03:19:02;;;;;;;20.25;10.13;;;17.10;99.90;;;;;;5053450;28;20044;-53
2023/06/11 03:21:29;;;;;;;19.65;10.00;;;17.20;99.90;;;;;;5054978;28;20033;-56
2023/06/11 03:23:55;;;;;;;18.35;9.32;;;17.20;99.90;;;;;;5053247;28;20041;-57
2023/06/11 03:26:24;;;;;;;17.38;9.57;;;17.20;99.90;;;;;;5054522;28;20094;-52
2023/06/11 03:28:51;;;;;;;19.05;10.05;;;17.20;99.90;;;;;;5053072;28;20059;-56
2023/06/11 03:31:21;;;;;;;18.85;10.00;;;17.20;99.90;;;;;;5052989;28;20056;-54
2023/06/11 03:33:49;;;;;;;16.98;9.32;;;17.20;99.90;;;;;;5052886;28;20072;-56
2023/06/11 03:36:18;;;;;;;19.23;10.02;;;17.20;99.90;;;;;;5052642;28;20392;-56
2023/06/11 03:38:45;;;;;;;17.58;9.35;;;17.20;99.90;;;;;;5052922;28;20069;-50
2023/06/11 03:41:14;;;;;;;18.20;9.57;;;17.20;99.90;;;;;;5053022;28;20045;-54
2023/06/11 03:43:41;;;;;;;14.93;8.80;;;17.20;99.90;;;;;;5052758;28;20047;-56
2023/06/11 03:46:08;;;;;;;14.55;8.77;;;17.20;99.90;;;;;;5052637;28;20447;-56
2023/06/11 03:48:35;;;;;;;13.80;8.57;;;17.20;99.90;;;;;;5052825;28;20090;-56
2023/06/11 03:51:02;;;;;;;14.85;8.82;;;17.20;99.90;;;;;;5052800;28;20041;-55
2023/06/11 03:53:29;;;;;;;16.48;9.43;;;17.10;99.90;;;;;;5052137;28;20041;-53
2023/06/11 03:55:57;;;;;;;23.73;9.82;;;17.10;99.90;;;;;;5053198;28;20033;-51
2023/06/11 03:58:24;;;;;;;15.82;9.00;;;17.10;99.90;;;;;;5052390;28;20048;-54
2023/06/11 04:00:51;;;;;;;17.15;8.60;;;17.10;99.90;;;;;;5052287;28;20044;-52
2023/06/11 04:03:19;;;;;;;16.83;9.43;;;17.00;99.90;;;;;;5052554;28;20052;-51
2023/06/11 04:05:46;;;;;;;19.90;8.73;;;17.00;99.90;;;;;;5053950;28;20488;-51
2023/06/11 04:08:14;;;;;;;17.17;8.65;;;17.00;99.90;;;;;;5052364;28;20045;-55
2023/06/11 04:10:42;;;;;;;22.33;9.38;;;17.00;99.90;;;;;;5053550;28;20037;-51
2023/06/11 04:13:09;;;;;;;18.20;8.82;;;17.00;99.90;;;;;;5052276;28;20052;-53
2023/06/11 04:15:36;;;;;;;16.88;8.82;;;17.00;99.90;;;;;;5052439;28;20060;-52
2023/06/11 04:18:06;;;;;;;17.98;9.40;;;17.00;99.90;;;;;;5052966;28;20045;-53
2023/06/11 04:20:33;;;;;;;16.15;8.48;;;17.00;99.90;;;;;;5053746;28;20041;-55
2023/06/11 04:23:00;;;;;;;13.80;9.10;;;17.00;99.90;;;;;;5052500;28;20102;-54
2023/06/11 04:25:31;;;;;;;14.15;8.95;;;17.00;99.90;;;;;;5052474;28;20069;-55
2023/06/11 04:28:00;;;;;;;20.70;9.65;;;16.90;99.90;;;;;;5052114;28;20045;-53
2023/06/11 04:30:28;;;;;;;16.60;9.07;;;16.90;99.90;;;;;;5052662;28;20560;-53
2023/06/11 04:32:55;;;;;;;20.15;9.35;;;16.90;99.90;;;;;;5052393;28;20072;-53
2023/06/11 04:35:25;;;;;;;14.55;9.40;;;17.00;99.90;;;;;;5052390;28;20499;-54
2023/06/11 04:37:52;;;;;;;15.02;8.48;;;17.10;99.90;;;;;;5052238;28;20099;-48
2023/06/11 04:40:24;;;;;;;17.17;9.05;;;17.20;99.90;;;;;;5052289;28;20045;-53
2023/06/11 04:42:52;;;;;;;16.33;9.18;;;17.30;99.90;;;;;;5052030;28;20041;-51
2023/06/11 04:45:20;;;;;;;15.50;9.27;;;17.40;99.90;;;;;;5035373;28;20041;-55
2023/06/11 04:47:48;;;;;;;16.70;8.93;;;17.50;99.90;;;;;;5052118;28;20491;-54
2023/06/11 04:50:20;;;;;;;14.05;8.45;;;17.60;99.90;;;;;;5051888;28;20131;-54
2023/06/11 04:52:52;;;;;;;16.88;8.77;;;17.70;99.90;;;;;;5052228;28;20060;-52
2023/06/11 04:55:24;;;;;;;17.05;8.85;;;17.70;99.90;;;;;;5051842;28;20057;-56
2023/06/11 04:57:54;;;;;;;18.73;8.38;;;17.80;99.90;;;;;;5051661;28;20069;-54
2023/06/11 05:00:23;;;;;;;16.13;9.10;;;17.90;99.90;;;;;;5052032;28;20091;-53
2023/06/11 05:02:51;;;;;;;16.33;8.48;;;18.00;99.90;;;;;;5052320;28;20072;-53
2023/06/11 05:05:19;;;;;;;20.20;9.38;;;18.10;99.90;;;;;;5056410;28;20049;-54
2023/06/11 05:07:46;;;;;;;14.73;8.43;;;18.20;99.90;;;;;;5055934;28;20041;-57
2023/06/11 05:10:15;;;;;;;19.67;9.30;;;18.30;99.90;;;;;;5056887;28;20048;-51
2023/06/11 05:12:42;;;;;;;15.48;8.73;;;18.40;99.90;;;;;;5055675;28;20060;-51
2023/06/11 05:15:09;;;;;;;19.73;9.00;;;18.50;99.90;;;;;;5056769;28;20032;-53
2023/06/11 05:17:37;;;;;;;19.35;9.48;;;18.60;99.90;;;;;;5055622;28;20037;-55
2023/06/11 05:20:05;;;;;;;20.35;9.80;;;18.70;99.80;;;;;;5055644;28;20045;-54
2023/06/11 05:22:32;;;;;;;15.73;10.07;;;18.70;99.90;;;;;;5055795;28;20559;-55
2023/06/11 05:25:00;;;;;;;17.88;9.13;;;18.80;99.90;;;;;;5055735;28;20387;-54
2023/06/11 05:27:29;;;;;;;18.23;8.57;;;18.90;99.60;;;;;;5055423;28;20041;-57
2023/06/11 05:29:58;;;;;;;19.98;8.65;;;18.90;99.70;;;;;;5055499;28;20056;-56
2023/06/11 05:32:31;;;;;;;17.88;8.00;;;19.00;99.50;;;;;;5055564;28;20037;-55
2023/06/11 05:34:59;;;;;;;18.92;8.63;;;19.10;99.30;;;;;;5055455;28;20045;-53
2023/06/11 05:37:26;;;;;;;18.90;8.88;;;19.20;99.10;;;;;;5055516;28;20357;-55
2023/06/11 05:39:53;;;;;;;19.88;9.10;;;19.30;99.30;;;;;;5055011;28;20044;-52
2023/06/11 05:42:21;;;;;;;17.77;9.45;;;19.20;99.00;;;;;;5054949;28;20124;-50
2023/06/11 05:44:48;;;;;;;16.25;9.18;;;19.30;99.20;;;;;;5038432;28;20071;-55
2023/06/11 05:47:15;;;;;;;14.07;9.32;;;19.40;99.00;;;;;;5055237;28;20455;-52
2023/06/11 05:49:43;;;;;;;17.92;8.52;;;19.50;98.70;;;;;;5055327;28;20052;-54
2023/06/11 05:52:10;;;;;;;16.15;8.52;;;19.50;98.90;;;;;;5055330;28;20040;-54
2023/06/11 05:54:37;;;;;;;14.32;7.97;;;19.50;98.80;;;;;;5056297;28;20041;-50
2023/06/11 05:57:08;;;;;;;16.17;8.65;;;19.50;98.80;;;;;;5054602;28;20053;-54
2023/06/11 05:59:35;;;;;;;16.73;8.90;;;19.70;98.70;;;;;;5054594;28;20064;-55
2023/06/11 06:02:02;;;;;;;19.27;8.10;;;19.70;98.40;;;;;;5055926;28;20132;-48
2023/06/11 06:04:31;;;;;;;18.05;9.23;;;19.80;98.30;;;;;;5055177;28;20037;-54
2023/06/11 06:06:58;;;;;;;18.67;8.55;;;19.90;98.40;;;;;;5054765;28;20059;-53
2023/06/11 06:09:24;;;;;;;16.80;8.45;;;20.00;98.10;;;;;;5055888;28;20048;-51
2023/06/11 06:11:51;;;;;;;20.10;9.38;;;20.00;98.00;;;;;;5054344;28;20045;-55
2023/06/11 06:14:19;;;;;;;18.40;8.77;;;20.00;97.90;;;;;;5054211;28;20065;-54
2023/06/11 06:16:47;;;;;;;18.92;8.98;;;20.10;98.00;;;;;;5054302;28;20128;-55
2023/06/11 06:19:18;;;;;;;20.48;8.73;;;20.10;97.90;;;;;;5054609;28;20075;-56
2023/06/11 06:21:45;;;;;;;17.80;9.32;;;20.10;97.80;;;;;;5054631;28;20075;-55
2023/06/11 06:24:12;;;;;;;18.88;8.40;;;20.00;98.00;;;;;;5054550;28;20039;-53
2023/06/11 06:26:40;;;;;;;17.80;7.95;;;19.90;97.90;;;;;;5055955;28;20453;-53
2023/06/11 06:29:08;;;;;;;20.13;7.97;;;19.90;98.20;;;;;;5054243;28;20080;-50
2023/06/11 06:31:38;;;;;;;16.95;7.57;;;19.90;98.20;;;;;;5054030;28;20053;-52
2023/06/11 06:34:06;;;;;;;17.85;7.68;;;20.00;98.10;;;;;;5053871;28;20055;-50
2023/06/11 06:36:35;;;;;;;21.15;8.77;;;20.00;98.10;;;;;;5054283;28;20099;-50
2023/06/11 06:39:02;;;;;;;19.52;7.47;;;20.00;98.30;;;;;;5053968;28;20072;-51
2023/06/11 06:41:29;;;;;;;20.63;8.18;;;20.10;98.00;;;;;;5054339;28;20067;-50
2023/06/11 06:44:01;;;;;;;17.40;7.75;;;20.10;98.00;;;;;;5038496;28;20075;-52
2023/06/11 06:46:28;;;;;;;18.15;7.20;;;20.20;97.80;;;;;;5054054;28;20067;-51
2023/06/11 06:48:55;;;;;;;16.20;7.50;;;20.30;97.90;;;;;;5055369;28;20048;-55
2023/06/11 06:51:22;;;;;;;20.25;7.60;;;20.40;97.60;;;;;;5053818;28;20114;-53
2023/06/11 06:53:53;;;;;;;15.75;7.03;;;20.40;97.40;;;;;;5053638;28;20041;-56
2023/06/11 06:56:21;;;;;;;19.38;7.20;;;20.50;97.40;;;;;;5053841;28;20052;-51
2023/06/11 06:58:48;;;;;;;21.83;7.65;;;20.60;97.10;;;;;;5054987;28;20029;-52
2023/06/11 07:01:16;;;;;;;19.60;7.40;;;20.60;97.10;;;;;;5053845;28;20048;-53
2023/06/11 07:03:44;;;;;;;20.35;7.47;;;20.60;97.10;;;;;;5037007;28;20041;-54
2023/06/11 07:06:10;;;;;;;18.60;7.60;;;20.60;97.00;;;;;;5053778;28;20064;-52
2023/06/11 07:08:37;;;;;;;20.40;8.18;;;20.50;97.10;;;;;;5037368;28;20043;-52
2023/06/11 07:11:04;;;;;;;18.92;7.38;;;20.60;97.50;;;;;;5054772;28;20090;-53
2023/06/11 07:13:39;;;;;;;22.30;7.75;;;20.60;97.20;;;;;;5053687;28;20047;-53
2023/06/11 07:16:07;;;;;;;18.35;8.00;;;20.70;97.10;;;;;;5054781;28;20041;-52
2023/06/11 07:18:36;;;;;;;18.25;7.90;;;20.80;97.00;;;;;;5053781;28;20124;-54
2023/06/11 07:21:03;;;;;;;19.30;8.32;;;20.90;97.10;;;;;;5053210;28;20044;-52
2023/06/11 07:23:32;;;;;;;19.77;7.93;;;21.00;97.00;;;;;;5053413;28;20041;-54
2023/06/11 07:26:00;;;;;;;17.05;7.00;;;21.10;96.90;;;;;;5053270;28;20538;-50
2023/06/11 07:28:28;;;;;;;16.90;7.47;;;21.10;97.00;;;;;;5053729;28;20041;-51
2023/06/11 07:30:57;;;;;;;16.50;6.93;;;21.20;96.90;;;;;;5053065;28;20045;-52
2023/06/11 07:33:24;;;;;;;16.08;7.38;;;21.30;97.00;;;;;;5053299;28;20052;-51
2023/06/11 07:35:54;;;;;;;20.05;7.45;;;21.30;97.10;;;;;;5053438;28;20104;-56
2023/06/11 07:38:22;;;;;;;15.20;6.97;;;21.40;96.90;;;;;;5053122;28;20140;-55
2023/06/11 07:40:48;;;;;;;17.17;7.18;;;21.50;96.70;;;;;;5052980;28;20045;-54
2023/06/11 07:43:16;;;;;;;25.42;6.97;;;21.60;96.70;;;;;;5052865;28;20136;-53
2023/06/11 07:45:43;;;;;;;17.15;8.65;;;21.70;96.50;;;;;;5052958;28;20128;-50
2023/06/11 07:48:11;;;;;;;19.20;8.52;;;21.80;96.30;;;;;;5053269;28;20069;-54
2023/06/11 07:50:38;;;;;;;18.67;7.50;;;21.80;96.20;;;;;;5052862;28;20052;-51
2023/06/11 07:53:04;;;;;;;17.42;8.23;;;21.90;96.40;;;;;;5052518;28;20103;-53
2023/06/11 07:55:33;;;;;;;14.65;7.93;;;22.00;96.20;;;;;;5052611;28;20049;-53
2023/06/11 07:58:00;;;;;;;18.30;8.48;;;22.10;96.20;;;;;;5054148;28;20045;-54
2023/06/11 08:00:26;;;;;;;22.00;8.10;;;22.20;96.00;;;;;;5053936;28;20507;-54
2023/06/11 08:02:53;;;;;;;18.15;8.95;;;22.30;96.00;;;;;;5053535;28;20037;-52
2023/06/11 08:05:21;;;;;;;15.60;8.50;;;22.40;95.60;;;;;;5053852;28;20079;-53
2023/06/11 08:07:48;;;;;;;15.07;8.02;;;22.40;95.70;;;;;;5054111;28;20127;-53
2023/06/11 08:10:15;;;;;;;20.08;8.38;;;22.50;95.80;;;;;;5054204;28;20133;-51
2023/06/11 08:12:42;;;;;;;20.60;8.27;;;22.50;95.60;;;;;;5053705;28;20052;-53
2023/06/11 08:15:10;;;;;;;21.67;8.57;;;22.60;95.60;;;;;;5053560;28;20107;-52
2023/06/11 08:17:36;;;;;;;20.05;8.32;;;22.60;95.50;;;;;;5053889;28;20037;-54
2023/06/11 08:20:06;;;;;;;16.65;8.32;;;22.80;95.60;;;;;;5053958;28;20048;-54
2023/06/11 08:22:34;;;;;;;16.33;8.73;;;22.80;95.20;;;;;;5053589;28;20048;-52
2023/06/11 08:25:00;;;;;;;17.08;8.13;;;22.90;95.30;;;;;;5070723;28;20036;-52
2023/06/11 08:27:27;;;;;;;16.45;8.00;;;22.90;95.40;;;;;;5073670;28;20509;-56
2023/06/11 08:29:54;;;;;;;17.98;8.80;;;22.90;95.30;;;;;;5073913;28;20045;-52
2023/06/11 08:32:21;;;;;;;18.13;8.57;;;22.90;95.00;;;;;;5073538;28;20047;-53
2023/06/11 08:34:48;;;;;;;13.80;7.65;;;22.90;95.10;;;;;;5073734;28;20098;-51
2023/06/11 08:37:15;;;;;;;21.55;8.23;;;23.00;95.30;;;;;;5073773;28;20032;-53
2023/06/11 08:39:42;;;;;;;15.15;8.02;;;23.10;95.30;;;;;;5077249;28;20370;-52
2023/06/11 08:42:08;;;;;;;14.50;8.05;;;23.10;95.30;;;;;;5076562;28;20040;-54
2023/06/11 08:44:35;;;;;;;16.23;8.07;;;23.20;95.20;;;;;;5077633;28;20082;-50
2023/06/11 08:47:03;;;;;;;19.65;8.55;;;23.30;95.20;;;;;;5093121;28;20052;-54
2023/06/11 08:49:29;;;;;;;17.63;7.95;;;23.30;95.10;;;;;;5077834;28;20090;-51
2023/06/11 08:51:56;;;;;;;18.25;8.07;;;23.40;95.30;;;;;;5077423;28;20044;-52
2023/06/11 08:54:23;;;;;;;17.25;7.53;;;23.50;95.40;;;;;;5076245;28;20113;-53
2023/06/11 08:56:50;;;;;;;17.73;8.40;;;23.60;95.10;;;;;;5069867;28;20072;-55
2023/06/11 08:59:18;;;;;;;16.38;8.00;;;23.60;95.10;;;;;;5056385;28;20043;-51
2023/06/11 09:01:50;;;;;;;15.85;8.57;;;23.70;95.10;;;;;;5056221;28;20041;-50
2023/06/11 09:04:17;;;;;;;13.82;7.78;;;23.80;94.80;;;;;;5056616;28;20456;-54
2023/06/11 09:06:44;;;;;;;15.40;7.88;;;23.80;94.70;;;;;;5056258;28;20488;-53
2023/06/11 09:09:11;;;;;;;17.75;8.00;;;23.80;95.00;;;;;;5055752;28;20116;-51
2023/06/11 09:11:39;;;;;;;15.82;7.60;;;23.90;94.70;;;;;;5056207;28;20131;-52
2023/06/11 09:14:06;;;;;;;15.23;7.47;;;23.90;94.90;;;;;;5056282;28;20041;-56
2023/06/11 09:16:32;;;;;;;16.65;7.75;;;23.90;94.80;;;;;;5056277;28;20052;-52
2023/06/11 09:18:59;;;;;;;12.32;6.60;;;24.10;94.50;;;;;;5056063;28;20128;-55
2023/06/11 09:21:26;;;;;;;13.32;7.97;;;24.10;94.90;;;;;;5056141;28;20042;-49
2023/06/11 09:23:53;;;;;;;14.85;7.05;;;24.20;94.80;;;;;;5055984;28;20040;-51
2023/06/11 09:26:21;;;;;;;11.18;7.35;;;24.30;94.60;;;;;;5054313;28;20045;-52
2023/06/11 09:28:50;;;;;;;15.65;7.97;;;24.40;94.30;;;;;;5056003;28;20391;-52
2023/06/11 09:31:17;;;;;;;14.68;7.05;;;24.40;94.00;;;;;;5055984;28;20120;-54
2023/06/11 09:33:44;;;;;;;13.50;6.88;;;24.50;94.00;;;;;;5055208;28;20460;-57
2023/06/11 09:36:10;;;;;;;15.88;7.53;;;24.60;94.00;;;;;;5055792;28;20480;-50
2023/06/11 09:38:37;;;;;;;13.82;7.10;;;24.70;93.50;;;;;;5055122;28;20065;-50
2023/06/11 09:41:04;;;;;;;12.73;7.32;;;24.80;93.40;;;;;;5055854;28;20041;-51
2023/06/11 09:43:31;;;;;;;12.23;6.57;;;24.80;93.50;;;;;;5055988;28;20131;-53
2023/06/11 09:45:57;;;;;;;12.10;7.13;;;24.90;93.40;;;;;;5055023;28;20048;-53
2023/06/11 09:48:24;;;;;;;14.60;7.32;;;25.00;93.50;;;;;;5055720;28;20449;-55
2023/06/11 09:50:51;;;;;;;13.68;7.40;;;25.10;93.30;;;;;;5055608;28;20037;-52
2023/06/11 09:53:18;;;;;;;15.05;7.20;;;25.10;93.00;;;;;;5055378;28;20132;-52
2023/06/11 09:55:45;;;;;;;11.98;6.75;;;25.20;93.10;;;;;;5055631;28;20049;-55
2023/06/11 09:58:31;;;;;;;10.38;6.90;;;25.30;93.20;;;;;;5052131;28;20128;-52
2023/06/11 10:01:01;;;;;;;16.27;6.88;;;25.40;92.90;;;;;;5055345;28;20048;-55
2023/06/11 10:03:32;;;;;;;13.10;7.07;;;25.50;92.80;;;;;;5055314;28;20045;-54
2023/06/11 10:05:58;;;;;;;14.52;6.30;;;25.60;92.40;;;;;;5054116;28;20041;-50
2023/06/11 10:08:25;;;;;;;12.13;6.70;;;25.70;92.50;;;;;;5053957;28;20049;-54
2023/06/11 10:10:52;;;;;;;13.57;6.68;;;25.90;92.00;;;;;;5055272;28;20400;-54
2023/06/11 10:13:19;;;;;;;11.93;6.88;;;26.10;92.00;;;;;;5055038;28;20039;-54
2023/06/11 10:15:46;;;;;;;11.30;7.22;;;26.30;91.50;;;;;;5055180;28;20094;-52
2023/06/11 10:18:13;;;;;;;14.48;7.30;;;26.40;91.70;;;;;;5055033;28;20479;-50
2023/06/11 10:20:39;;;;;;;13.32;6.57;;;26.50;91.40;;;;;;5053983;28;20071;-52
2023/06/11 10:23:06;;;;;;;14.75;6.78;;;26.70;91.70;;;;;;5055091;28;20043;-54
2023/06/11 10:25:34;;;;;;;12.18;6.82;;;26.90;91.80;;;;;;5054828;28;20044;-52
2023/06/11 10:28:01;;;;;;;12.07;7.47;;;27.10;91.40;;;;;;5053953;28;20033;-57
2023/06/11 10:30:28;;;;;;;9.80;6.70;;;27.30;91.20;;;;;;5054790;28;20041;-54
2023/06/11 10:32:56;;;;;;;15.35;7.15;;;27.30;91.00;;;;;;5053484;28;20076;-54
2023/06/11 10:35:28;;;;;;;13.52;6.38;;;27.40;91.00;;;;;;5054779;28;20147;-55
2023/06/11 10:37:55;;;;;;;13.73;6.13;;;27.50;91.20;;;;;;5054633;28;20037;-56
2023/06/11 10:40:22;;;;;;;12.75;6.20;;;27.70;90.80;;;;;;5054357;28;20045;-51
2023/06/11 10:42:49;;;;;;;12.82;6.43;;;27.80;90.60;;;;;;5054475;28;20503;-51
2023/06/11 10:45:16;;;;;;;15.60;7.55;;;27.80;90.40;;;;;;5054356;28;20045;-53
2023/06/11 10:47:43;;;;;;;11.60;6.97;;;27.70;90.30;;;;;;5054492;28;20500;-54
2023/06/11 10:50:09;;;;;;;11.13;6.28;;;27.70;90.40;;;;;;5054571;28;20045;-52
2023/06/11 10:52:37;;;;;;;13.25;6.43;;;27.70;90.60;;;;;;5053340;28;20041;-51
2023/06/11 10:55:03;;;;;;;16.05;7.30;;;27.70;90.30;;;;;;5054392;28;20059;-54
2023/06/11 10:57:30;;;;;;;9.70;6.32;;;27.80;90.10;;;;;;5053764;28;20499;-53
2023/06/11 10:59:57;;;;;;;14.48;6.28;;;27.80;90.00;;;;;;5054524;28;20041;-52
2023/06/11 11:02:24;;;;;;;11.88;7.22;;;27.80;89.60;;;;;;5053971;28;20045;-53
2023/06/11 11:04:51;;;;;;;14.48;6.93;;;27.80;89.80;;;;;;5054433;28;20048;-55
2023/06/11 11:07:18;;;;;;;11.80;6.40;;;27.80;89.10;;;;;;5054409;28;20128;-54
2023/06/11 11:09:45;;;;;;;12.07;6.97;;;27.80;88.90;;;;;;5054728;28;20048;-50
2023/06/11 11:12:12;;;;;;;9.40;6.30;;;27.80;89.20;;;;;;5054047;28;20530;-53
2023/06/11 11:14:39;;;;;;;14.15;6.28;;;27.70;88.50;;;;;;5054501;28;20053;-51
2023/06/11 11:17:05;;;;;;;10.60;6.72;;;27.80;89.40;;;;;;5054407;28;20052;-48
2023/06/11 11:19:34;;;;;;;9.60;5.95;;;27.70;89.00;;;;;;5054179;28;20037;-53
2023/06/11 11:22:01;;;;;;;8.75;5.90;;;27.80;89.30;;;;;;5053667;28;20029;-50
2023/06/11 11:24:27;;;;;;;9.57;6.15;;;27.90;89.00;;;;;;5054004;28;20040;-53
2023/06/11 11:26:55;;;;;;;13.27;6.75;;;28.00;89.10;;;;;;5054065;28;20037;-51
2023/06/11 11:29:21;;;;;;;11.23;6.80;;;28.00;89.20;;;;;;5054262;28;20037;-53
2023/06/11 11:31:48;;;;;;;11.30;6.97;;;28.00;88.70;;;;;;5054093;28;20494;-52
2023/06/11 11:34:15;;;;;;;11.65;6.53;;;28.10;88.90;;;;;;5054301;28;20049;-54
2023/06/11 11:36:42;;;;;;;10.57;6.68;;;28.20;88.60;;;;;;5053904;28;20045;-51
2023/06/11 11:39:09;;;;;;;11.80;6.35;;;28.20;88.50;;;;;;5054078;28;20522;-49
2023/06/11 11:41:36;;;;;;;11.70;6.60;;;28.20;87.80;;;;;;5053787;28;20061;-50
2023/06/11 11:44:02;;;;;;;11.55;7.05;;;28.20;87.40;;;;;;5053901;28;20464;-53
2023/06/11 11:46:29;;;;;;;10.23;6.38;;;28.20;86.80;;;;;;5053804;28;20094;-54
2023/06/11 11:48:56;;;;;;;9.93;6.57;;;28.20;87.80;;;;;;5053906;28;20051;-54
2023/06/11 11:51:23;;;;;;;11.60;6.40;;;28.20;87.40;;;;;;5054047;28;20385;-49
2023/06/11 11:53:50;;;;;;;11.65;6.97;;;28.30;87.10;;;;;;5053672;28;20392;-53
2023/06/11 11:56:17;;;;;;;10.85;6.32;;;28.50;87.50;;;;;;5053228;28;20053;-50
2023/06/11 11:58:44;;;;;;;10.80;5.70;;;28.50;86.30;;;;;;5051575;28;20435;-55
2023/06/11 12:01:11;;;;;;;9.07;5.45;;;28.60;85.70;;;;;;5053683;28;20033;-51
2023/06/11 12:03:38;;;;;;;9.13;5.63;;;28.70;85.60;;;;;;5053719;28;20041;-50
2023/06/11 12:06:05;;;;;;;7.60;5.43;;;28.90;85.50;;;;;;5053541;28;20041;-50
2023/06/11 12:08:32;;;;;;;12.90;6.55;;;28.90;84.00;;;;;;5053511;28;20040;-55
2023/06/11 12:10:59;;;;;;;9.48;5.85;;;28.90;83.80;;;;;;5053462;28;20404;-50
2023/06/11 12:13:26;;;;;;;8.80;5.93;;;28.80;84.30;;;;;;5052953;28;20055;-52
2023/06/11 12:15:52;;;;;;;11.05;6.07;;;28.80;84.80;;;;;;5053435;28;20037;-54
2023/06/11 12:18:19;;;;;;;9.82;5.65;;;28.90;84.70;;;;;;5053603;28;20037;-52
2023/06/11 12:20:46;;;;;;;11.55;5.70;;;28.90;84.30;;;;;;5053335;28;20041;-54
2023/06/11 12:23:14;;;;;;;8.13;5.82;;;29.10;84.80;;;;;;5052992;28;20037;-55
2023/06/11 12:25:42;;;;;;;9.80;5.68;;;29.10;84.40;;;;;;5053338;28;20056;-53
2023/06/11 12:28:08;;;;;;;8.73;5.60;;;29.10;85.00;;;;;;5053159;28;20440;-54
2023/06/11 12:30:35;;;;;;;9.13;6.00;;;29.30;84.40;;;;;;5053032;28;20049;-53
2023/06/11 12:33:02;;;;;;;11.18;6.20;;;29.40;83.60;;;;;;5053374;28;20041;-51
2023/06/11 12:35:30;;;;;;;14.75;6.43;;;29.40;84.80;;;;;;5053442;28;20116;-54
2023/06/11 12:37:57;;;;;;;8.80;6.30;;;29.50;85.00;;;;;;5046765;28;20044;-53